Map

Track Data

SID SEASON NUMBER BASIN SUBBASIN NAME ISO_TIME NATURE LAT LON WMO_WIND WMO_PRES WMO_AGENCY TRACK_TYPE DIST2LAND LANDFALL IFLAG USA_AGENCY USA_ATCF_ID USA_LAT USA_LON USA_RECORD USA_STATUS USA_WIND USA_PRES USA_SSHS USA_R34_NE USA_R34_SE USA_R34_SW USA_R34_NW USA_R50_NE USA_R50_SE USA_R50_SW USA_R50_NW USA_R64_NE USA_R64_SE USA_R64_SW USA_R64_NW USA_POCI USA_ROCI USA_RMW USA_EYE TOKYO_LAT TOKYO_LON TOKYO_GRADE TOKYO_WIND TOKYO_PRES TOKYO_R50_DIR TOKYO_R50_LONG TOKYO_R50_SHORT TOKYO_R30_DIR TOKYO_R30_LONG TOKYO_R30_SHORT TOKYO_LAND CMA_LAT CMA_LON CMA_CAT CMA_WIND CMA_PRES HKO_LAT HKO_LON HKO_CAT HKO_WIND HKO_PRES NEWDELHI_LAT NEWDELHI_LON NEWDELHI_GRADE NEWDELHI_WIND NEWDELHI_PRES NEWDELHI_CI NEWDELHI_DP NEWDELHI_POCI REUNION_LAT REUNION_LON REUNION_TYPE REUNION_WIND REUNION_PRES REUNION_TNUM REUNION_CI REUNION_RMW REUNION_R34_NE REUNION_R34_SE REUNION_R34_SW REUNION_R34_NW REUNION_R50_NE REUNION_R50_SE REUNION_R50_SW REUNION_R50_NW REUNION_R64_NE REUNION_R64_SE REUNION_R64_SW REUNION_R64_NW BOM_LAT BOM_LON BOM_TYPE BOM_WIND BOM_PRES BOM_TNUM BOM_CI BOM_RMW BOM_R34_NE BOM_R34_SE BOM_R34_SW BOM_R34_NW BOM_R50_NE BOM_R50_SE BOM_R50_SW BOM_R50_NW BOM_R64_NE BOM_R64_SE BOM_R64_SW BOM_R64_NW BOM_ROCI BOM_POCI BOM_EYE BOM_POS_METHOD BOM_PRES_METHOD NADI_LAT NADI_LON NADI_CAT NADI_WIND NADI_PRES WELLINGTON_LAT WELLINGTON_LON WELLINGTON_WIND WELLINGTON_PRES DS824_LAT DS824_LON DS824_STAGE DS824_WIND DS824_PRES TD9636_LAT TD9636_LON TD9636_STAGE TD9636_WIND TD9636_PRES TD9635_LAT TD9635_LON TD9635_WIND TD9635_PRES TD9635_ROCI NEUMANN_LAT NEUMANN_LON NEUMANN_CLASS NEUMANN_WIND NEUMANN_PRES MLC_LAT MLC_LON MLC_CLASS MLC_WIND MLC_PRES USA_GUST BOM_GUST BOM_GUST_PER REUNION_GUST REUNION_GUST_PER USA_SEAHGT USA_SEARAD_NE USA_SEARAD_SE USA_SEARAD_SW USA_SEARAD_NW STORM_SPEED STORM_DIR
1990288S08074 1991 105 SI MM NOT_NAMED 1990-10-15 06:00:00 TS -7.80000 73.7000 main 1711 1711 O___________O_ jtwc_sh SH021991 -7.80000 73.7000 20 -1 -7.80000 73.7000 TC 20 13 219
1990288S08074 1991 105 SI MM NOT_NAMED 1990-10-15 09:00:00 TS -8.29757 73.2952 main 1780 1780 P___________P_ SH021991 -8.29757 73.2952 20 -1 -8.29757 73.2952 TC 20 12 221
1990288S08074 1991 105 SI MM NOT_NAMED 1990-10-15 12:00:00 TS -8.70000 72.9000 main 1840 1840 O___________O_ jtwc_sh SH021991 -8.70000 72.9000 20 -1 -8.70000 72.9000 TC 20 10 230
1990288S08074 1991 105 SI MM NOT_NAMED 1990-10-15 15:00:00 TS -8.93250 72.5399 main 1880 1880 P___________P_ SH021991 -8.93250 72.5399 20 -1 -8.93250 72.5399 TC 20 7 243
1990288S08074 1991 105 SI MM NOT_NAMED 1990-10-15 18:00:00 TS -9.00000 72.3000 main 1900 1900 O___________O_ jtwc_sh SH021991 -9.00000 72.3000 20 -1 -9.00000 72.3000 TC 20 3 265
1990288S08074 1991 105 SI MM NOT_NAMED 1990-10-15 21:00:00 TS -8.95995 72.2324 main 1905 1881 P___________P_ SH021991 -8.95995 72.2324 22 -1 -8.95995 72.2324 TC 22 2 8
1990288S08074 1991 105 SI MM NOT_NAMED 1990-10-16 00:00:00 TS -8.80000 72.3000 main 1881 1856 O___________O_ jtwc_sh SH021991 -8.80000 72.3000 25 -1 -8.80000 72.3000 TC 25 5 27
1990288S08074 1991 105 SI MM NOT_NAMED 1990-10-16 03:00:00 TS -8.54253 72.4426 main 1846 1816 P___________P_ SH021991 -8.54253 72.4426 25 -1 -8.54253 72.4426 TC 25 6 31
1990288S08074 1991 105 SI MM NOT_NAMED 1990-10-16 06:00:00 TS -8.30000 72.6000 main 1816 1801 O___________O_ jtwc_sh SH021991 -8.30000 72.6000 25 -1 -8.30000 72.6000 TC 25 4 35
1990288S08074 1991 105 SI MM NOT_NAMED 1990-10-16 09:00:00 TS -8.21999 72.6725 main 1801 1801 P___________P_ SH021991 -8.21999 72.6725 25 -1 -8.21999 72.6725 TC 25 1 43
1990288S08074 1991 105 SI MM NOT_NAMED 1990-10-16 12:00:00 TS -8.20000 72.7000 main 1801 1801 O___________O_ jtwc_sh SH021991 -8.20000 72.7000 25 -1 -8.20000 72.7000 TC 25 1 11
1990288S08074 1991 105 SI MM NOT_NAMED 1990-10-16 15:00:00 TS -8.16500 72.7000 main 1801 1791 P___________P_ SH021991 -8.16500 72.7000 27 -1 -8.16500 72.7000 TC 27 1 0
1990288S08074 1991 105 SI MM NOT_NAMED 1990-10-16 18:00:00 TS -8.10000 72.7000 main 1791 1781 O___________O_ jtwc_sh SH021991 -8.10000 72.7000 30 -1 -8.10000 72.7000 TC 30 2 17
1990288S08074 1991 105 SI MM NOT_NAMED 1990-10-16 21:00:00 TS -7.97250 72.7500 main 1776 1756 P___________P_ SH021991 -7.97250 72.7500 30 -1 -7.97250 72.7500 TC 30 3 17
1990288S08074 1991 105 SI MM NOT_NAMED 1990-10-17 00:00:00 TS -7.80000 72.8000 main 1756 1736 O___________O_ jtwc_sh SH021991 -7.80000 72.8000 30 -1 -7.80000 72.8000 TC 30 4 13
1990288S08074 1991 105 SI MM NOT_NAMED 1990-10-17 03:00:00 TS -7.59248 72.8375 main 1736 1717 P___________P_ SH021991 -7.59248 72.8375 30 -1 -7.59248 72.8375 TC 30 4 0
1990288S08074 1991 105 SI MM NOT_NAMED 1990-10-17 06:00:00 TS -7.40000 72.8000 main 1717 1707 O___________O_ jtwc_sh SH021991 -7.40000 72.8000 30 -1 -7.40000 72.8000 TC 30 4 328
1990288S08074 1991 105 SI MM NOT_NAMED 1990-10-17 09:00:00 TS -7.27751 72.6375 main 1718 1708 P___________P_ SH021991 -7.27751 72.6375 30 -1 -7.27751 72.6375 TC 30 4 297
1990288S08074 1991 105 SI MM NOT_NAMED 1990-10-17 12:00:00 TS -7.20000 72.4000 main 1719 1719 O___________O_ jtwc_sh SH021991 -7.20000 72.4000 30 -1 -7.20000 72.4000 TC 30 5 286
1990288S08074 1991 105 SI MM NOT_NAMED 1990-10-17 15:00:00 TS -7.14250 72.1575 main 1721 1721 P___________P_ SH021991 -7.14250 72.1575 30 -1 -7.14250 72.1575 TC 30 5 281
1990288S08074 1991 105 SI MM NOT_NAMED 1990-10-17 18:00:00 TS -7.10000 71.9000 main 1739 1739 O___________O_ jtwc_sh SH021991 -7.10000 71.9000 30 -1 -7.10000 71.9000 TC 30 5 281
1990288S08074 1991 105 SI MM NOT_NAMED 1990-10-17 21:00:00 TS -7.04250 71.6425 main 1748 1748 P___________P_ SH021991 -7.04250 71.6425 30 -1 -7.04250 71.6425 TC 30 5 281
1990288S08074 1991 105 SI MM NOT_NAMED 1990-10-18 00:00:00 TS -7.00000 71.4000 main 1760 1760 O___________O_ jtwc_sh SH021991 -7.00000 71.4000 30 -1 -7.00000 71.4000 TC 30 5 275
1990288S08074 1991 105 SI MM NOT_NAMED 1990-10-18 03:00:00 TS -6.99999 71.1850 main 1773 1773 P___________P_ SH021991 -6.99999 71.1850 30 -1 -6.99999 71.1850 TC 30 4 270
1990288S08074 1991 105 SI MM NOT_NAMED 1990-10-18 06:00:00 TS -7.00000 71.0000 main 1785 1785 O___________O_ jtwc_sh SH021991 -7.00000 71.0000 30 -1 -7.00000 71.0000 TC 30 3 277
1990288S08074 1991 105 SI MM NOT_NAMED 1990-10-18 09:00:00 TS -6.95749 70.8425 main 1798 1789 P___________P_ SH021991 -6.95749 70.8425 30 -1 -6.95749 70.8425 TC 30 3 289
1990288S08074 1991 105 SI MM NOT_NAMED 1990-10-18 12:00:00 TS -6.90000 70.7000 main 1796 1796 O___________O_ jtwc_sh SH021991 -6.90000 70.7000 30 -1 -6.90000 70.7000 TC 30 3 290
1990288S08074 1991 105 SI MM NOT_NAMED 1990-10-18 15:00:00 TS -6.85000 70.5500 main 1793 1793 P___________P_ SH021991 -6.85000 70.5500 30 -1 -6.85000 70.5500 TC 30 3 289
1990288S08074 1991 105 SI MM NOT_NAMED 1990-10-18 18:00:00 TS -6.80000 70.4000 main 1807 1805 O___________O_ jtwc_sh SH021991 -6.80000 70.4000 30 -1 -6.80000 70.4000 TC 30 3 290
1990288S08074 1991 105 SI MM NOT_NAMED 1990-10-18 21:00:00 TS -6.74250 70.2500 main 1805 1812 P___________P_ SH021991 -6.74250 70.2500 30 -1 -6.74250 70.2500 TC 30 3 289
1990288S08074 1991 105 SI MM NOT_NAMED 1990-10-19 00:00:00 TS -6.70000 70.1000 main 1819 1819 O___________O_ jtwc_sh SH021991 -6.70000 70.1000 30 -1 -6.70000 70.1000 TC 30 3 281
1990288S08074 1991 105 SI MM NOT_NAMED 1990-10-19 03:00:00 TS -6.68500 69.9500 main 1826 1833 P___________P_ SH021991 -6.68500 69.9500 27 -1 -6.68500 69.9500 TC 27 3 270
1990288S08074 1991 105 SI MM NOT_NAMED 1990-10-19 06:00:00 TS -6.70000 69.8000 main 1840 1840 O___________O_ jtwc_sh SH021991 -6.70000 69.8000 25 -1 -6.70000 69.8000 TC 25 3 259
1990288S08074 1991 105 SI MM NOT_NAMED 1990-10-19 09:00:00 TS -6.74250 69.6500 main 1847 1847 P___________P_ SH021991 -6.74250 69.6500 25 -1 -6.74250 69.6500 TC 25 3 251
1990288S08074 1991 105 SI MM NOT_NAMED 1990-10-19 12:00:00 TS -6.80000 69.5000 main 1869 1869 O___________O_ jtwc_sh SH021991 -6.80000 69.5000 25 -1 -6.80000 69.5000 TC 25 3 250
1990288S08074 1991 105 SI MM NOT_NAMED 1990-10-19 15:00:00 TS -6.85000 69.3500 main 1877 1884 P___________P_ SH021991 -6.85000 69.3500 25 -1 -6.85000 69.3500 TC 25 3 251
1990288S08074 1991 105 SI MM NOT_NAMED 1990-10-19 18:00:00 TS -6.90000 69.2000 main 1899 1899 O___________O_ jtwc_sh SH021991 -6.90000 69.2000 25 -1 -6.90000 69.2000 TC 25 3 252
1990288S08074 1991 105 SI MM NOT_NAMED 1990-10-19 21:00:00 TS -6.94249 69.0575 main 1907 1900 P___________P_ SH021991 -6.94249 69.0575 22 -1 -6.94249 69.0575 TC 22 3 251
1990288S08074 1991 105 SI MM NOT_NAMED 1990-10-20 00:00:00 TS -7.00000 68.9000 main 1900 1877 O___________O_ jtwc_sh SH021991 -7.00000 68.9000 20 -1 -7.00000 68.9000 TC 20 4 247
1990288S08074 1991 105 SI MM NOT_NAMED 1990-10-20 03:00:00 TS -7.09002 68.7100 main 1877 1855 P___________P_ SH021991 -7.09002 68.7100 20 -1 -7.09002 68.7100 TC 20 4 243
1990288S08074 1991 105 SI MM NOT_NAMED 1990-10-20 06:00:00 TS -7.20000 68.5000 main 1855 O___________O_ jtwc_sh SH021991 -7.20000 68.5000 20 -1 -7.20000 68.5000 TC 20 5 242

About IBTrACS Database

This database is a web-friendly format of International Best Track Archive for Climate Stewardship (IBTrACS), a global best track data archive curated by NOAA dating back to 1842.

Updated: 2021-11-26